createdAt,value
2022-11-25T00:00:25.734Z,5.09
2022-11-25T00:05:32.648Z,5.03
2022-11-25T00:10:37.764Z,5.06
2022-11-25T00:15:50.104Z,5.02
2022-11-25T00:20:55.003Z,5.04
2022-11-25T00:25:59.970Z,5.03
2022-11-25T00:31:13.018Z,4.92
2022-11-25T00:36:20.379Z,5.07
2022-11-25T00:41:37.854Z,5.18
2022-11-25T00:46:45.762Z,5.18
2022-11-25T00:51:50.867Z,5.23
2022-11-25T00:56:55.685Z,5.21
2022-11-25T01:02:03.584Z,5.38
2022-11-25T01:07:09.233Z,5.41
2022-11-25T01:12:14.448Z,5.50
2022-11-25T01:17:22.147Z,5.17
2022-11-25T01:22:27.131Z,5.03
2022-11-25T01:27:32.384Z,5.14
2022-11-25T01:32:41.141Z,5.13
2022-11-25T01:37:46.114Z,4.97
2022-11-25T01:42:52.153Z,4.98
2022-11-25T01:48:05.854Z,4.85
2022-11-25T01:53:15.068Z,4.84
2022-11-25T01:58:23.793Z,4.76
2022-11-25T02:03:35.996Z,4.56
2022-11-25T02:08:41.782Z,4.35
2022-11-25T02:13:48.514Z,4.24
2022-11-25T02:18:56.729Z,4.30
2022-11-25T02:24:11.948Z,4.25
2022-11-25T02:29:20.055Z,4.09
2022-11-25T02:34:27.003Z,4.10
2022-11-25T02:39:32.059Z,4.01
2022-11-25T02:44:39.851Z,3.96
2022-11-25T02:49:46.635Z,4.01
2022-11-25T02:54:52.055Z,4.14
2022-11-25T02:59:59.696Z,4.24
2022-11-25T03:05:04.826Z,4.22
2022-11-25T03:10:10.619Z,4.14
2022-11-25T03:15:18.409Z,4.33
2022-11-25T03:20:23.508Z,4.28
2022-11-25T03:25:28.508Z,4.19
2022-11-25T03:30:36.640Z,4.26
2022-11-25T03:35:42.421Z,4.31
2022-11-25T03:40:47.827Z,4.33
2022-11-25T03:45:55.686Z,4.33
2022-11-25T03:51:00.891Z,4.26
2022-11-25T03:56:07.313Z,4.26
2022-11-25T04:01:15.897Z,4.20
2022-11-25T04:06:24.059Z,4.31
2022-11-25T04:11:43.891Z,4.41
2022-11-25T04:16:53.446Z,4.46
2022-11-25T04:21:59.902Z,4.40
2022-11-25T04:27:06.378Z,4.43
2022-11-25T04:32:16.449Z,4.42
2022-11-25T04:37:22.397Z,4.34
2022-11-25T04:42:39.703Z,4.42
2022-11-25T04:47:54.892Z,4.57
2022-11-25T04:53:00.688Z,4.65
2022-11-25T04:58:06.383Z,4.68
2022-11-25T05:03:15.929Z,4.69
2022-11-25T05:08:21.174Z,4.58
2022-11-25T05:13:26.917Z,4.44
2022-11-25T05:18:34.634Z,4.43
2022-11-25T05:23:39.713Z,4.48
2022-11-25T05:28:45.869Z,4.58
2022-11-25T05:33:53.539Z,4.56
2022-11-25T05:39:00.208Z,4.42
2022-11-25T05:44:34.841Z,4.35
2022-11-25T05:49:43.541Z,4.32
2022-11-25T05:54:51.274Z,4.16
2022-11-25T06:00:00.520Z,4.08
2022-11-25T06:05:25.853Z,4.03
2022-11-25T06:10:30.949Z,4.01
2022-11-25T06:15:36.220Z,4.05
2022-11-25T06:20:45.563Z,3.94
2022-11-25T06:25:51.145Z,3.90
2022-11-25T06:30:59.099Z,3.79
2022-11-25T06:36:19.311Z,3.70
2022-11-25T06:41:24.815Z,3.53
2022-11-25T06:46:30.023Z,3.46
2022-11-25T06:51:37.764Z,3.55
2022-11-25T06:56:42.987Z,3.56
2022-11-25T07:01:48.086Z,3.69
2022-11-25T07:06:55.699Z,3.58
2022-11-25T07:12:00.645Z,3.84
2022-11-25T07:17:11.568Z,3.82
2022-11-25T07:22:19.705Z,3.55
2022-11-25T07:27:24.762Z,3.56
2022-11-25T07:32:29.719Z,3.50
2022-11-25T07:37:37.295Z,3.51
2022-11-25T07:42:42.455Z,3.65
2022-11-25T07:47:48.006Z,3.76
2022-11-25T07:52:55.674Z,3.78
2022-11-25T07:58:00.658Z,3.89
2022-11-25T08:03:09.206Z,3.87
2022-11-25T08:08:17.441Z,3.84
2022-11-25T08:13:22.503Z,3.95
2022-11-25T08:18:27.618Z,4.05
2022-11-25T08:23:35.645Z,4.11
2022-11-25T08:28:41.671Z,4.45
2022-11-25T08:33:48.306Z,4.69
2022-11-25T08:38:58.628Z,4.83
2022-11-25T08:44:10.557Z,4.91
2022-11-25T08:49:18.573Z,4.95
2022-11-25T08:54:27.774Z,5.21
2022-11-25T08:59:32.759Z,5.27
2022-11-25T09:04:37.711Z,5.49
2022-11-25T09:09:45.288Z,5.56
2022-11-25T09:14:50.274Z,5.66
2022-11-25T09:19:55.688Z,5.78
2022-11-25T09:25:06.588Z,5.97
2022-11-25T09:30:12.827Z,6.13
2022-11-25T09:35:17.939Z,6.41
2022-11-25T09:40:35.944Z,6.59
2022-11-25T09:46:02.903Z,6.72
2022-11-25T09:51:20.232Z,6.96
2022-11-25T09:56:38.066Z,6.99
2022-11-25T10:01:51.833Z,7.10
2022-11-25T10:07:02.123Z,7.48
2022-11-25T10:12:20.922Z,7.36
2022-11-25T10:17:37.674Z,7.45
2022-11-25T10:22:46.802Z,7.59
2022-11-25T10:27:59.886Z,7.68
2022-11-25T10:33:16.103Z,7.81
2022-11-25T10:38:29.199Z,8.17
2022-11-25T10:43:39.875Z,8.49
2022-11-25T10:48:57.768Z,8.80
2022-11-25T10:54:18.735Z,9.03
2022-11-25T10:59:32.713Z,9.55
2022-11-25T11:04:38.144Z,9.66
2022-11-25T11:09:43.862Z,9.70
2022-11-25T11:14:52.630Z,10.12
2022-11-25T11:20:21.848Z,10.85
2022-11-25T11:25:33.441Z,11.82
2022-11-25T11:30:55.827Z,12.78
2022-11-25T11:36:07.807Z,12.70
2022-11-25T11:41:26.540Z,13.12
2022-11-25T11:46:46.312Z,11.93
2022-11-25T11:52:00.519Z,11.29
2022-11-25T11:57:17.864Z,12.50
2022-11-25T12:02:31.041Z,12.78
2022-11-25T12:07:44.602Z,11.29
2022-11-25T12:12:55.734Z,10.80
2022-11-25T12:18:13.370Z,10.84
2022-11-25T12:23:24.418Z,10.85
2022-11-25T12:28:36.831Z,10.56
2022-11-25T12:33:53.013Z,10.37
2022-11-25T12:38:59.547Z,10.24
2022-11-25T12:44:10.639Z,9.97
2022-11-25T12:49:23.271Z,9.99
2022-11-25T12:54:45.462Z,10.03
2022-11-25T13:00:39.812Z,10.27
2022-11-25T13:05:56.652Z,9.75
2022-11-25T13:11:30.750Z,9.74
2022-11-25T13:16:36.932Z,9.39
2022-11-25T13:22:04.521Z,9.07
2022-11-25T13:27:29.707Z,9.19
2022-11-25T13:32:37.918Z,9.09
2022-11-25T13:37:46.155Z,9.39
2022-11-25T13:42:52.109Z,9.23
2022-11-25T13:47:58.257Z,8.93
2022-11-25T13:53:08.694Z,8.15
2022-11-25T13:58:22.738Z,8.00
2022-11-25T14:03:55.394Z,7.68
2022-11-25T14:09:09.214Z,7.48
2022-11-25T14:14:31.772Z,7.52
2022-11-25T14:20:04.401Z,7.29
2022-11-25T14:25:22.340Z,7.01
2022-11-25T14:30:31.097Z,6.89
2022-11-25T14:35:45.336Z,6.95
2022-11-25T14:41:01.906Z,6.67
2022-11-25T14:46:16.383Z,6.48
2022-11-25T14:51:22.355Z,6.25
2022-11-25T14:56:33.901Z,6.36
2022-11-25T15:01:40.345Z,6.67
2022-11-25T15:06:51.266Z,6.66
2022-11-25T15:12:04.169Z,6.49
2022-11-25T15:17:11.912Z,6.38
2022-11-25T15:22:23.505Z,6.27
2022-11-25T15:27:32.092Z,5.86
2022-11-25T15:32:38.925Z,5.65
2022-11-25T15:37:44.952Z,5.60
2022-11-25T15:42:52.650Z,5.52
2022-11-25T15:48:00.394Z,5.44
2022-11-25T15:53:05.636Z,5.76
2022-11-25T15:58:19.572Z,5.83
2022-11-25T16:03:25.232Z,5.52
2022-11-25T16:08:36.553Z,5.33
2022-11-25T16:13:44.967Z,5.34
2022-11-25T16:19:13.419Z,5.43
2022-11-25T16:24:46.162Z,5.43
2022-11-25T16:29:56.353Z,5.39
2022-11-25T16:35:16.606Z,5.38
2022-11-25T16:40:22.474Z,5.50
2022-11-25T16:45:31.268Z,5.67
2022-11-25T16:50:36.383Z,5.64
2022-11-25T16:55:46.235Z,5.70
2022-11-25T17:00:58.934Z,5.77
2022-11-25T17:06:06.489Z,5.63
2022-11-25T17:11:16.601Z,5.54
2022-11-25T17:16:26.620Z,5.40
2022-11-25T17:21:31.844Z,5.14
2022-11-25T17:26:40.596Z,5.16
2022-11-25T17:31:53.625Z,5.14
2022-11-25T17:37:01.829Z,5.23
2022-11-25T17:42:08.387Z,5.20
2022-11-25T17:47:18.663Z,5.21
2022-11-25T17:52:23.871Z,5.25
2022-11-25T17:57:31.219Z,5.44
2022-11-25T18:02:39.284Z,5.41
2022-11-25T18:07:46.449Z,5.47
2022-11-25T18:12:54.908Z,5.39
2022-11-25T18:18:06.543Z,5.53
2022-11-25T18:23:12.450Z,5.59
2022-11-25T18:28:20.590Z,5.46
2022-11-25T18:33:29.494Z,5.54
2022-11-25T18:38:34.380Z,5.54
2022-11-25T18:43:39.382Z,5.49
2022-11-25T18:48:47.217Z,5.46
2022-11-25T18:53:52.227Z,5.45
2022-11-25T18:58:59.886Z,5.69
2022-11-25T19:04:08.967Z,5.92
2022-11-25T19:09:17.884Z,6.31
2022-11-25T19:14:33.158Z,6.43
2022-11-25T19:19:43.035Z,6.62
2022-11-25T19:24:50.027Z,6.79
2022-11-25T19:29:58.042Z,6.72
2022-11-25T19:35:09.792Z,6.74
2022-11-25T19:40:21.776Z,6.74
2022-11-25T19:45:30.800Z,6.67
2022-11-25T19:50:41.977Z,6.69
2022-11-25T19:55:48.026Z,6.79
2022-11-25T20:00:53.557Z,6.81
2022-11-25T20:06:02.161Z,6.95
2022-11-25T20:11:07.924Z,7.05
2022-11-25T20:16:20.218Z,6.91
2022-11-25T20:21:33.498Z,7.09
2022-11-25T20:26:41.755Z,7.09
2022-11-25T20:31:47.657Z,7.10
2022-11-25T20:36:55.417Z,7.03
2022-11-25T20:42:00.500Z,6.99
2022-11-25T20:47:05.667Z,6.93
2022-11-25T20:52:23.066Z,6.98
2022-11-25T20:57:33.703Z,7.05
2022-11-25T21:02:39.887Z,7.01
2022-11-25T21:07:49.045Z,6.94
2022-11-25T21:12:54.822Z,7.00
2022-11-25T21:18:00.506Z,6.93
2022-11-25T21:23:09.482Z,6.87
2022-11-25T21:28:20.095Z,6.94
2022-11-25T21:33:25.078Z,6.67
2022-11-25T21:38:32.601Z,6.86
2022-11-25T21:43:41.373Z,6.69
2022-11-25T21:48:46.711Z,6.70
2022-11-25T21:53:54.626Z,6.64
2022-11-25T21:59:02.589Z,6.65
2022-11-25T22:04:09.327Z,6.69
2022-11-25T22:09:17.603Z,6.82
2022-11-25T22:14:34.723Z,6.82
2022-11-25T22:19:40.052Z,6.78
2022-11-25T22:24:50.016Z,6.83
2022-11-25T22:29:55.918Z,6.82
2022-11-25T22:35:01.161Z,6.81
2022-11-25T22:40:10.434Z,6.82
2022-11-25T22:45:23.322Z,6.98
2022-11-25T22:50:31.057Z,7.02
2022-11-25T22:55:38.611Z,6.90
2022-11-25T23:00:46.021Z,7.02
2022-11-25T23:05:52.661Z,6.96
2022-11-25T23:11:03.413Z,6.91
2022-11-25T23:16:08.944Z,6.90
2022-11-25T23:21:20.463Z,6.92
2022-11-25T23:26:33.632Z,6.89
2022-11-25T23:31:41.300Z,6.88
2022-11-25T23:36:49.448Z,6.94
2022-11-25T23:42:00.803Z,7.07
2022-11-25T23:47:08.837Z,7.00
2022-11-25T23:52:17.351Z,7.05
2022-11-25T23:57:27.462Z,7.13
